Time;durP1;ratioP1;P1;durP2;ratioP2;P2;SDS_P1;SDS_P2;PMS_P1;PMS_P2;Temp;Humidity;BMP_temperature;BMP_pressure;BME280_temperature;BME280_humidity;BME280_pressure;Samples;Min_cycle;Max_cycle;Signal;HPM_P1;HPM_P2
2022/04/11 00:00:35;;;;;;;6.57;3.50;;;;;;;2.76;65.38;100733.19;5076263;28;20390;-57
2022/04/11 00:03:02;;;;;;;5.45;3.45;;;;;;;2.76;64.94;100728.50;5086249;28;20063;-55
2022/04/11 00:05:31;;;;;;;5.13;3.38;;;;;;;2.75;65.67;100726.88;5096396;28;20044;-56
2022/04/11 00:07:59;;;;;;;5.10;3.22;;;;;;;2.74;65.42;100730.69;5085708;28;20052;-56
2022/04/11 00:10:26;;;;;;;4.88;3.50;;;;;;;2.74;65.75;100736.19;5077361;28;20048;-57
2022/04/11 00:13:01;;;;;;;5.07;3.10;;;;;;;2.71;66.11;100731.22;5076261;28;20531;-52
2022/04/11 00:15:29;;;;;;;6.22;3.17;;;;;;;2.73;65.94;100733.69;5079999;28;20067;-53
2022/04/11 00:17:56;;;;;;;4.82;3.10;;;;;;;2.73;65.97;100725.44;5095057;28;20052;-53
2022/04/11 00:20:23;;;;;;;4.00;2.70;;;;;;;2.73;65.55;100731.78;5094020;28;20048;-54
2022/04/11 00:22:52;;;;;;;3.30;2.80;;;;;;;2.72;65.79;100724.59;5075717;28;20048;-52
2022/04/11 00:25:19;;;;;;;4.07;2.67;;;;;;;2.66;65.84;100724.81;5075654;28;20056;-58
2022/04/11 00:27:46;;;;;;;3.17;2.63;;;;;;;2.63;66.01;100721.47;5076261;28;20059;-56
2022/04/11 00:30:14;;;;;;;4.80;2.75;;;;;;;2.60;65.71;100722.00;5090345;28;20380;-54
2022/04/11 00:32:43;;;;;;;4.28;2.80;;;;;;;2.60;66.28;100724.75;5075453;28;20056;-58
2022/04/11 00:35:12;;;;;;;5.72;3.42;;;;;;;2.58;65.83;100721.44;5080597;28;20044;-57
2022/04/11 00:37:39;;;;;;;4.07;3.25;;;;;;;2.57;66.51;100719.75;5084453;28;20044;-56
2022/04/11 00:40:10;;;;;;;4.78;2.95;;;;;;;2.58;66.52;100715.06;5095760;28;20063;-56
2022/04/11 00:42:38;;;;;;;5.03;2.92;;;;;;;2.61;66.14;100722.81;5079755;28;20052;-56
2022/04/11 00:45:07;;;;;;;5.07;2.90;;;;;;;2.62;65.79;100724.47;5083958;28;20055;-57
2022/04/11 00:47:35;;;;;;;4.97;3.40;;;;;;;2.60;65.68;100718.41;5075324;28;20056;-57
2022/04/11 00:50:05;;;;;;;4.88;2.90;;;;;;;2.60;66.65;100721.16;5079683;28;20048;-58
2022/04/11 00:52:36;;;;;;;4.85;2.88;;;;;;;2.57;66.36;100725.25;5085546;28;20059;-57
2022/04/11 00:55:07;;;;;;;4.00;2.90;;;;;;;2.61;66.67;100717.31;5095120;28;20055;-52
2022/04/11 00:57:36;;;;;;;3.00;2.70;;;;;;;2.63;66.16;100720.66;5077539;28;20060;-53
2022/04/11 01:00:07;;;;;;;4.50;2.97;;;;;;;2.58;66.60;100710.44;5089058;28;20051;-57
2022/04/11 01:02:34;;;;;;;4.95;2.55;;;;;;;2.58;66.51;100715.94;5094436;28;20822;-57
2022/04/11 01:05:02;;;;;;;4.25;2.67;;;;;;;2.54;66.31;100711.16;5086439;28;20404;-57
2022/04/11 01:07:30;;;;;;;3.67;3.15;;;;;;;2.55;67.02;100713.66;5086038;28;20052;-56
2022/04/11 01:09:57;;;;;;;3.75;2.95;;;;;;;2.56;66.37;100715.34;5075285;28;20045;-58
2022/04/11 01:12:26;;;;;;;4.32;2.90;;;;;;;2.55;66.66;100710.91;5074924;28;20083;-56
2022/04/11 01:14:55;;;;;;;3.90;2.83;;;;;;;2.59;66.78;100712.06;5079188;28;20052;-56
2022/04/11 01:17:32;;;;;;;2.90;2.50;;;;;;;2.62;66.38;100702.47;5091005;28;20059;-58
2022/04/11 01:19:59;;;;;;;4.78;3.05;;;;;;;2.63;66.29;100710.47;5095136;28;20067;-56
2022/04/11 01:22:28;;;;;;;4.03;2.95;;;;;;;2.61;67.03;100706.31;5094863;28;20056;-56
2022/04/11 01:24:55;;;;;;;5.43;3.15;;;;;;;2.62;66.71;100708.81;5094670;28;20052;-54
2022/04/11 01:27:25;;;;;;;3.60;2.75;;;;;;;2.58;66.84;100706.81;5094465;28;20056;-56
2022/04/11 01:29:53;;;;;;;4.97;2.75;;;;;;;2.58;66.77;100706.81;5092525;28;20401;-57
2022/04/11 01:32:20;;;;;;;4.30;3.40;;;;;;;2.60;67.00;100704.66;5087491;28;20055;-56
2022/04/11 01:34:47;;;;;;;5.50;3.28;;;;;;;2.59;67.28;100703.81;5074468;28;20053;-55
2022/04/11 01:37:14;;;;;;;5.15;3.70;;;;;;;2.63;67.13;100712.41;5078406;28;20055;-57
2022/04/11 01:39:43;;;;;;;4.55;3.38;;;;;;;2.60;66.59;100704.66;5089130;28;20051;-53
2022/04/11 01:42:10;;;;;;;4.82;3.13;;;;;;;2.63;67.33;100693.97;5074665;28;20048;-56
2022/04/11 01:44:38;;;;;;;5.85;3.50;;;;;;;2.67;67.12;100696.19;5081181;28;20044;-57
2022/04/11 01:47:05;;;;;;;5.10;3.30;;;;;;;2.71;67.35;100700.09;5080641;28;20056;-57
2022/04/11 01:49:32;;;;;;;4.10;3.42;;;;;;;2.71;66.94;100687.19;5074079;28;20052;-58
2022/04/11 01:51:59;;;;;;;3.70;2.78;;;;;;;2.69;66.61;100689.38;5076510;28;20064;-57
2022/04/11 01:54:27;;;;;;;5.40;3.50;;;;;;;2.70;67.12;100681.94;5094095;28;20052;-55
2022/04/11 01:56:55;;;;;;;5.13;3.65;;;;;;;2.73;67.61;100681.41;5093688;28;20412;-58
2022/04/11 01:59:23;;;;;;;4.85;3.13;;;;;;;2.75;67.60;100676.50;5091186;28;20052;-55
2022/04/11 02:01:50;;;;;;;4.82;3.20;;;;;;;2.76;67.70;100669.94;5091548;28;20059;-57
2022/04/11 02:04:17;;;;;;;3.45;3.08;;;;;;;2.81;67.29;100669.97;5093831;28;20050;-58
2022/04/11 02:06:45;;;;;;;5.78;3.60;;;;;;;2.82;67.16;100675.22;5085036;28;20059;-56
2022/04/11 02:09:12;;;;;;;4.78;3.10;;;;;;;2.85;67.64;100669.19;5073521;28;20044;-54
2022/04/11 02:11:40;;;;;;;5.00;3.33;;;;;;;2.90;67.02;100673.09;5073200;28;20059;-53
2022/04/11 02:14:09;;;;;;;5.32;3.03;;;;;;;2.93;67.64;100669.84;5075903;28;20051;-56
2022/04/11 02:16:36;;;;;;;8.13;3.70;;;;;;;2.93;67.51;100664.34;5091492;28;20049;-54
2022/04/11 02:19:04;;;;;;;4.95;3.20;;;;;;;2.95;67.61;100662.16;5086071;28;20603;-54
2022/04/11 02:21:31;;;;;;;4.18;2.95;;;;;;;2.92;66.96;100663.50;5093158;28;20051;-55
2022/04/11 02:23:58;;;;;;;4.38;3.10;;;;;;;2.93;66.83;100658.84;5093401;28;20396;-57
2022/04/11 02:26:26;;;;;;;5.00;3.20;;;;;;;2.95;67.14;100662.16;5091522;28;20052;-57
2022/04/11 02:28:53;;;;;;;6.88;3.75;;;;;;;2.97;67.39;100657.22;5093368;28;20048;-58
2022/04/11 02:31:22;;;;;;;6.28;3.38;;;;;;;2.97;67.14;100660.78;5090380;28;20506;-58
2022/04/11 02:33:49;;;;;;;5.85;3.17;;;;;;;2.95;66.69;100657.47;5077345;28;20056;-56
2022/04/11 02:36:16;;;;;;;4.45;3.05;;;;;;;2.93;67.68;100653.31;5073283;28;20059;-57
2022/04/11 02:38:44;;;;;;;4.07;2.78;;;;;;;2.95;66.52;100657.47;5074670;28;20055;-56
2022/04/11 02:41:11;;;;;;;4.05;3.00;;;;;;;2.97;66.53;100648.97;5093135;28;20385;-57
2022/04/11 02:43:38;;;;;;;4.40;3.10;;;;;;;2.95;66.85;100651.16;5092213;28;20047;-55
2022/04/11 02:46:05;;;;;;;5.20;2.78;;;;;;;2.89;67.15;100649.44;5080550;28;20062;-56
2022/04/11 02:48:34;;;;;;;4.18;2.65;;;;;;;2.90;67.27;100653.81;5092883;28;20059;-55
2022/04/11 02:51:01;;;;;;;5.15;3.35;;;;;;;2.87;67.71;100649.69;5093077;28;20460;-57
2022/04/11 02:53:29;;;;;;;4.75;3.13;;;;;;;2.89;67.57;100657.69;5093308;28;20052;-55
2022/04/11 02:55:56;;;;;;;4.45;3.00;;;;;;;2.90;67.76;100642.81;5092765;28;20051;-54
2022/04/11 02:58:23;;;;;;;3.97;3.05;;;;;;;2.90;67.45;100649.19;5093115;28;20496;-52
2022/04/11 03:00:50;;;;;;;5.50;3.95;;;;;;;2.92;66.82;100652.50;5089326;28;20412;-58
2022/04/11 03:03:18;;;;;;;4.85;3.05;;;;;;;2.93;67.63;100650.56;5092606;28;20043;-58
2022/04/11 03:05:47;;;;;;;3.53;2.63;;;;;;;2.92;67.49;100655.25;5092393;28;20064;-57
2022/04/11 03:08:14;;;;;;;4.75;2.97;;;;;;;2.93;67.15;100656.09;5082790;28;20052;-55
2022/04/11 03:10:42;;;;;;;3.85;2.95;;;;;;;2.92;67.32;100651.66;5090364;28;20044;-56
2022/04/11 03:13:09;;;;;;;4.40;3.75;;;;;;;2.95;67.54;100653.91;5087909;28;20052;-57
2022/04/11 03:15:36;;;;;;;3.88;3.30;;;;;;;2.94;67.23;100652.22;5077936;28;20499;-57
2022/04/11 03:18:04;;;;;;;5.95;3.00;;;;;;;2.97;67.56;100654.47;5093121;28;20055;-54
2022/04/11 03:20:31;;;;;;;4.00;2.90;;;;;;;2.98;66.93;100650.63;5092525;28;20047;-58
2022/04/11 03:23:00;;;;;;;4.78;3.15;;;;;;;3.00;67.16;100653.94;5091904;28;20051;-53
2022/04/11 03:25:27;;;;;;;4.82;2.97;;;;;;;3.00;66.97;100654.78;5083774;28;20052;-58
2022/04/11 03:27:54;;;;;;;4.07;3.00;;;;;;;2.99;67.59;100652.28;5072258;28;20052;-57
2022/04/11 03:30:22;;;;;;;4.40;3.30;;;;;;;2.97;66.81;100652.53;5075604;28;20052;-58
2022/04/11 03:32:49;;;;;;;5.30;3.30;;;;;;;2.97;67.30;100657.22;5072469;28;20441;-54
2022/04/11 03:35:16;;;;;;;5.32;2.90;;;;;;;2.99;66.76;100663.28;5083080;28;20056;-53
2022/04/11 03:37:44;;;;;;;5.82;3.20;;;;;;;2.99;67.04;100671.56;5086248;28;20048;-55
2022/04/11 03:40:13;;;;;;;4.90;3.10;;;;;;;2.99;67.32;100657.78;5078970;28;20063;-58
2022/04/11 03:42:40;;;;;;;3.72;2.83;;;;;;;3.01;67.06;100659.19;5092749;28;20059;-53
2022/04/11 03:45:11;;;;;;;5.50;2.90;;;;;;;3.01;66.47;100650.94;5084866;28;20510;-58
2022/04/11 03:47:39;;;;;;;4.00;2.90;;;;;;;2.99;66.47;100649.53;5088055;28;20059;-55
2022/04/11 03:50:07;;;;;;;4.38;3.22;;;;;;;2.97;66.86;100655.28;5091710;28;20492;-57
2022/04/11 03:52:34;;;;;;;4.53;3.30;;;;;;;2.95;66.71;100662.97;5090866;28;20048;-56
2022/04/11 03:55:03;;;;;;;5.88;3.10;;;;;;;2.94;66.67;100654.97;5086891;28;20061;-57
2022/04/11 03:57:32;;;;;;;3.53;2.90;;;;;;;2.94;67.34;100654.97;5085281;28;20044;-57
2022/04/11 04:00:00;;;;;;;5.00;3.70;;;;;;;2.93;66.72;100654.16;5091632;28;20052;-56
2022/04/11 04:02:27;;;;;;;5.30;3.30;;;;;;;2.93;67.42;100654.16;5072105;28;20055;-58
2022/04/11 04:04:55;;;;;;;4.60;3.13;;;;;;;2.91;66.71;100650.81;5080954;28;20056;-58
2022/04/11 04:07:22;;;;;;;5.70;3.47;;;;;;;2.91;67.14;100650.00;5091604;28;20048;-57
2022/04/11 04:09:50;;;;;;;4.35;3.00;;;;;;;2.92;66.94;100646.16;5085682;28;20053;-58
2022/04/11 04:12:20;;;;;;;7.18;4.22;;;;;;;2.90;67.41;100649.19;5071937;28;20060;-52
2022/04/11 04:14:49;;;;;;;10.07;6.35;;;;;;;2.90;67.09;100654.69;5073943;28;20060;-54
2022/04/11 04:17:17;;;;;;;7.18;4.78;;;;;;;2.89;67.05;100652.19;5087248;28;20515;-57
2022/04/11 04:19:44;;;;;;;6.18;4.05;;;;;;;2.84;67.28;100651.03;5082565;28;20048;-56
2022/04/11 04:22:11;;;;;;;4.55;3.40;;;;;;;2.87;67.42;100651.59;5071754;28;20052;-56
2022/04/11 04:24:40;;;;;;;7.55;3.97;;;;;;;2.86;67.07;100653.53;5071927;28;20053;-57
2022/04/11 04:27:07;;;;;;;7.47;4.10;;;;;;;2.80;67.71;100651.81;5071681;28;20068;-57
2022/04/11 04:29:35;;;;;;;4.57;3.30;;;;;;;2.82;67.82;100646.88;5076259;28;20059;-54
2022/04/11 04:32:04;;;;;;;4.63;2.95;;;;;;;2.81;67.25;100640.56;5072801;28;20507;-56
2022/04/11 04:34:31;;;;;;;4.78;3.50;;;;;;;2.80;67.49;100644.38;5088056;28;20048;-54
2022/04/11 04:36:59;;;;;;;6.55;3.72;;;;;;;2.81;67.56;100645.22;5094560;28;20059;-58
2022/04/11 04:39:27;;;;;;;8.77;3.90;;;;;;;2.79;67.85;100645.50;5077806;28;20055;-58
2022/04/11 04:41:54;;;;;;;4.43;3.45;;;;;;;2.77;67.50;100641.31;5075778;28;20048;-55
2022/04/11 04:44:21;;;;;;;6.60;4.45;;;;;;;2.75;67.89;100641.59;5083270;28;20490;-54
2022/04/11 04:46:49;;;;;;;5.25;4.63;;;;;;;2.73;68.35;100643.78;5076948;28;20052;-57
2022/04/11 04:49:17;;;;;;;5.32;4.28;;;;;;;2.73;67.87;100643.78;5082158;28;20404;-56
2022/04/11 04:51:44;;;;;;;7.70;6.97;;;;;;;2.73;68.91;100642.91;5075092;28;20065;-57
2022/04/11 04:54:12;;;;;;;5.45;4.13;;;;;;;2.76;69.19;100643.25;5075710;28;20053;-57
2022/04/11 04:56:39;;;;;;;5.60;3.72;;;;;;;2.72;68.71;100642.09;5076578;28;20484;-55
2022/04/11 04:59:06;;;;;;;5.22;3.97;;;;;;;2.69;68.00;100642.63;5075001;28;20492;-58
2022/04/11 05:01:33;;;;;;;7.03;4.70;;;;;;;2.69;67.83;100648.13;5075060;28;20051;-58
2022/04/11 05:04:01;;;;;;;6.35;4.55;;;;;;;2.71;67.91;100651.44;5074607;28;20052;-58
2022/04/11 05:06:30;;;;;;;5.32;4.53;;;;;;;2.71;67.41;100648.69;5076368;28;20083;-55
2022/04/11 05:08:57;;;;;;;5.53;3.75;;;;;;;2.72;67.79;100653.09;5088182;28;20052;-56
2022/04/11 05:11:25;;;;;;;4.90;3.58;;;;;;;2.72;67.30;100653.09;5088526;28;20051;-57
2022/04/11 05:13:52;;;;;;;8.65;4.85;;;;;;;2.70;67.39;100654.44;5090301;28;20048;-56
2022/04/11 05:16:20;;;;;;;5.80;4.20;;;;;;;2.68;67.62;100646.44;5082351;28;20510;-55
2022/04/11 05:18:47;;;;;;;5.30;3.50;;;;;;;2.68;67.14;100656.63;5075367;28;20055;-55
2022/04/11 05:21:14;;;;;;;5.50;3.30;;;;;;;2.71;67.50;100645.09;5074455;28;20405;-57
2022/04/11 05:23:43;;;;;;;5.20;3.30;;;;;;;2.73;66.75;100653.91;5089251;28;20040;-57
2022/04/11 05:26:10;;;;;;;5.43;4.15;;;;;;;2.72;67.25;100652.28;5092636;28;20052;-58
2022/04/11 05:28:37;;;;;;;10.30;4.22;;;;;;;2.71;66.73;100651.44;5075662;28;20052;-55
2022/04/11 05:31:05;;;;;;;4.88;3.90;;;;;;;2.72;66.49;100647.59;5075225;28;20473;-56
2022/04/11 05:33:32;;;;;;;5.10;3.72;;;;;;;2.71;66.99;100639.59;5081230;28;20056;-57
2022/04/11 05:35:59;;;;;;;5.18;3.72;;;;;;;2.68;66.94;100643.69;5073952;28;20052;-54
2022/04/11 05:38:27;;;;;;;5.55;3.90;;;;;;;2.68;66.63;100648.38;5075060;28;20056;-55
2022/04/11 05:40:56;;;;;;;6.82;4.47;;;;;;;2.66;67.01;100654.13;5078860;28;20074;-57
2022/04/11 05:43:24;;;;;;;8.27;4.25;;;;;;;2.65;67.50;100641.47;5091479;28;20048;-55
2022/04/11 05:45:51;;;;;;;7.20;4.75;;;;;;;2.65;67.55;100644.22;5094477;28;20515;-58
2022/04/11 05:48:19;;;;;;;6.85;4.47;;;;;;;2.57;68.02;100639.19;5081113;28;20056;-58
2022/04/11 05:50:46;;;;;;;4.95;4.38;;;;;;;2.64;67.29;100637.88;5078403;28;20048;-54
2022/04/11 05:53:14;;;;;;;5.22;4.03;;;;;;;2.71;67.88;100643.19;5078588;28;20068;-58
2022/04/11 05:55:41;;;;;;;6.70;4.20;;;;;;;2.80;67.29;100630.63;5076382;28;20056;-58
2022/04/11 05:58:12;;;;;;;7.53;4.93;;;;;;;2.90;67.57;100637.31;5073682;28;20062;-59
2022/04/11 06:00:40;;;;;;;7.43;5.20;;;;;;;2.99;67.87;100635.78;5073602;28;20061;-56
2022/04/11 06:03:07;;;;;;;7.55;5.57;;;;;;;3.08;67.30;100636.13;5081979;28;20044;-58
2022/04/11 06:05:43;;;;;;;7.53;5.50;;;;;;;3.19;67.67;100630.47;5086530;28;20392;-58
2022/04/11 06:08:10;;;;;;;8.65;5.55;;;;;;;3.29;68.17;100631.66;5079773;28;20052;-59
2022/04/11 06:10:38;;;;;;;6.25;5.32;;;;;;;3.36;67.80;100630.34;5085052;28;20048;-58
2022/04/11 06:13:06;;;;;;;8.00;5.25;;;;;;;3.42;67.26;100629.31;5072985;28;20048;-58
2022/04/11 06:15:37;;;;;;;6.85;5.38;;;;;;;3.54;67.75;100636.53;5074960;28;20051;-58
2022/04/11 06:18:04;;;;;;;12.07;5.57;;;;;;;3.62;66.96;100636.06;5074690;28;20055;-58
2022/04/11 06:20:32;;;;;;;7.30;5.47;;;;;;;3.71;67.30;100630.88;5074679;28;20048;-59
2022/04/11 06:22:59;;;;;;;7.97;5.90;;;;;;;3.81;67.17;100629.00;5084516;28;20048;-59
2022/04/11 06:25:26;;;;;;;8.38;5.43;;;;;;;3.89;66.58;100627.69;5084578;28;20382;-59
2022/04/11 06:27:53;;;;;;;8.15;6.43;;;;;;;4.01;66.14;100630.22;5073377;28;20063;-59
2022/04/11 06:30:21;;;;;;;8.38;6.53;;;;;;;4.10;66.24;100622.31;5083874;28;20075;-58
2022/04/11 06:32:49;;;;;;;8.73;6.75;;;;;;;4.27;66.34;100621.00;5078174;28;20048;-57
2022/04/11 06:35:17;;;;;;;8.55;6.18;;;;;;;4.41;65.41;100621.34;5074237;28;20055;-57
2022/04/11 06:37:44;;;;;;;7.55;6.68;;;;;;;4.58;66.00;100618.38;5073180;28;20056;-57
2022/04/11 06:40:12;;;;;;;8.60;6.28;;;;;;;4.75;65.16;100618.16;5073638;28;20060;-59
2022/04/11 06:42:40;;;;;;;8.27;6.93;;;;;;;4.92;65.06;100619.84;5091365;28;20070;-59
2022/04/11 06:45:09;;;;;;;10.88;6.90;;;;;;;5.10;64.38;100613.78;5086848;28;20418;-59
2022/04/11 06:47:36;;;;;;;11.27;7.63;;;;;;;5.27;64.52;100619.88;5086778;28;20507;-59
2022/04/11 06:50:06;;;;;;;12.68;7.03;;;;;;;5.43;64.36;100615.19;5074482;28;20516;-59
2022/04/11 06:52:33;;;;;;;11.85;7.10;;;;;;;5.55;63.73;100606.63;5072394;28;20048;-53
2022/04/11 06:55:00;;;;;;;7.75;6.95;;;;;;;5.69;63.27;100617.91;5088689;28;20055;-59
2022/04/11 06:57:28;;;;;;;9.07;6.70;;;;;;;5.82;63.43;100609.06;5091135;28;20059;-58
2022/04/11 06:59:55;;;;;;;10.75;6.90;;;;;;;5.96;62.98;100612.09;5079737;28;20416;-54
2022/04/11 07:02:22;;;;;;;8.55;7.28;;;;;;;6.07;62.65;100605.44;5072985;28;20049;-56
2022/04/11 07:04:50;;;;;;;10.98;7.57;;;;;;;6.27;62.14;100612.03;5074668;28;20063;-55
2022/04/11 07:07:19;;;;;;;9.68;7.05;;;;;;;6.42;61.29;100613.91;5091906;28;20055;-52
2022/04/11 07:09:47;;;;;;;10.63;7.28;;;;;;;6.62;61.31;100618.53;5084536;28;20059;-52
2022/04/11 07:12:14;;;;;;;11.65;7.95;;;;;;;6.78;60.78;100617.31;5095216;28;20421;-52
2022/04/11 07:14:41;;;;;;;10.70;7.47;;;;;;;6.97;60.07;100611.97;5090080;28;20049;-52
2022/04/11 07:17:09;;;;;;;8.73;7.25;;;;;;;7.16;59.20;100603.78;5081037;28;20056;-53
2022/04/11 07:19:36;;;;;;;9.63;6.75;;;;;;;7.24;58.63;100611.47;5087568;28;20055;-51
2022/04/11 07:22:03;;;;;;;8.43;6.72;;;;;;;7.55;57.95;100594.59;5089613;28;20052;-56
2022/04/11 07:24:32;;;;;;;8.07;6.07;;;;;;;8.01;57.28;100598.84;5084596;28;20497;-55
2022/04/11 07:26:59;;;;;;;8.75;5.53;;;;;;;8.97;56.34;100592.38;5093844;28;20055;-52
2022/04/11 07:29:27;;;;;;;6.90;5.22;;;;;;;10.14;53.88;100595.91;5092995;28;20047;-54
2022/04/11 07:31:54;;;;;;;7.00;4.93;;;;;;;11.34;49.64;100585.47;5091679;28;20058;-54
2022/04/11 07:34:21;;;;;;;5.75;4.65;;;;;;;12.66;48.91;100581.34;5097564;28;20503;-53
2022/04/11 07:36:49;;;;;;;5.78;4.65;;;;;;;14.07;45.19;100584.56;5090572;28;20436;-56
2022/04/11 07:39:16;;;;;;;5.60;3.83;;;;;;;15.46;41.74;100582.00;5080923;28;20071;-53
2022/04/11 07:41:45;;;;;;;5.93;4.30;;;;;;;16.84;39.42;100578.72;5079554;28;20052;-55
2022/04/11 07:44:12;;;;;;;6.50;3.70;;;;;;;18.12;34.61;100579.91;5070301;28;20075;-55
2022/04/11 07:46:39;;;;;;;4.50;2.97;;;;;;;19.30;33.06;100582.72;5075106;28;20466;-56
2022/04/11 07:49:07;;;;;;;4.95;3.50;;;;;;;20.39;30.03;100584.41;5089292;28;20055;-54
2022/04/11 07:51:34;;;;;;;3.90;2.88;;;;;;;21.43;28.24;100577.44;5077863;28;20052;-55
2022/04/11 07:54:02;;;;;;;6.63;3.55;;;;;;;22.34;26.85;100574.34;5077608;28;20055;-55
2022/04/11 07:56:29;;;;;;;4.47;3.33;;;;;;;23.10;25.45;100561.53;5072770;28;20075;-54
2022/04/11 07:58:58;;;;;;;3.67;3.00;;;;;;;23.98;24.41;100569.94;5072594;28;20048;-56
2022/04/11 08:01:28;;;;;;;4.97;3.03;;;;;;;24.47;23.47;100574.06;5075410;28;20051;-50
2022/04/11 08:03:55;;;;;;;4.68;3.05;;;;;;;25.34;22.42;100566.16;5079118;28;20056;-51
2022/04/11 08:06:23;;;;;;;5.07;3.15;;;;;;;25.78;22.23;100565.53;5070929;28;20056;-56
2022/04/11 08:08:50;;;;;;;5.20;3.10;;;;;;;26.49;21.34;100564.22;5073011;28;20480;-51
2022/04/11 08:11:19;;;;;;;4.05;3.20;;;;;;;27.07;20.69;100560.81;5090639;28;20075;-53
2022/04/11 08:13:46;;;;;;;3.88;2.95;;;;;;;27.65;19.73;100558.03;5078684;28;20067;-51
2022/04/11 08:16:17;;;;;;;4.75;2.80;;;;;;;28.28;19.93;100563.25;5087425;28;20373;-57
2022/04/11 08:18:45;;;;;;;4.10;2.80;;;;;;;28.13;19.46;100556.94;5077381;28;20125;-56
2022/04/11 08:21:12;;;;;;;3.28;2.85;;;;;;;28.60;19.62;100562.75;5076533;28;20068;-58
2022/04/11 08:23:40;;;;;;;4.38;2.92;;;;;;;29.10;19.63;100558.13;5090112;28;20055;-57
2022/04/11 08:26:07;;;;;;;3.72;2.50;;;;;;;29.60;18.49;100551.31;5074824;28;20063;-58
2022/04/11 08:28:34;;;;;;;3.10;2.53;;;;;;;30.08;17.62;100531.78;5076119;28;20059;-56
2022/04/11 08:31:02;;;;;;;3.22;2.67;;;;;;;30.67;17.41;100541.38;5075700;28;20056;-57
2022/04/11 08:33:30;;;;;;;4.13;2.00;;;;;;;31.05;14.65;100535.81;5092880;28;20048;-58
2022/04/11 08:35:57;;;;;;;;;;;;;;;30.44;14.64;100536.66;5093167;28;20052;-58
2022/04/11 08:38:25;;;;;;;3.42;2.13;;;;;;;30.97;14.13;100525.78;5081800;28;22123;-58
2022/04/11 08:40:55;;;;;;;3.47;2.10;;;;;;;31.01;14.07;100523.59;5074472;28;20059;-57
2022/04/11 08:43:23;;;;;;;3.78;2.20;;;;;;;31.41;14.14;100529.00;5088852;28;20060;-57
2022/04/11 08:45:54;;;;;;;2.92;2.05;;;;;;;31.82;13.52;100527.34;5076733;28;20052;-58
2022/04/11 08:48:22;;;;;;;3.88;1.88;;;;;;;32.21;13.74;100519.50;5078451;28;20036;-58
2022/04/11 08:50:51;;;;;;;2.88;2.10;;;;;;;31.61;13.42;100525.97;5081688;28;20485;-54
2022/04/11 08:53:21;;;;;;;4.47;2.10;;;;;;;31.96;13.18;100532.66;5081517;28;20044;-54
2022/04/11 08:55:49;;;;;;;3.03;2.35;;;;;;;31.72;13.18;100525.63;5089378;28;20055;-55
2022/04/11 08:58:17;;;;;;;2.58;1.70;;;;;;;32.44;13.30;100523.25;5084518;28;20052;-56
2022/04/11 09:00:44;;;;;;;2.27;1.80;;;;;;;32.68;12.24;100527.38;5075934;28;20497;-58
2022/04/11 09:03:11;;;;;;;3.60;2.33;;;;;;;32.43;12.23;100522.47;5074591;28;20056;-57
2022/04/11 09:05:39;;;;;;;2.65;2.08;;;;;;;32.27;12.06;100526.28;5072598;28;20096;-55
2022/04/11 09:08:08;;;;;;;4.45;2.40;;;;;;;32.40;12.30;100528.34;5083826;28;20066;-59
2022/04/11 09:10:37;;;;;;;2.72;2.10;;;;;;;33.02;11.83;100528.63;5088044;28;20099;-59
2022/04/11 09:13:07;;;;;;;3.38;2.22;;;;;;;32.67;11.72;100520.00;5082581;28;20056;-59
2022/04/11 09:15:40;;;;;;;3.15;2.00;;;;;;;32.02;12.49;100515.59;5080629;28;20059;-59
2022/04/11 09:18:08;;;;;;;2.33;1.90;;;;;;;32.28;12.16;100518.47;5074408;28;20056;-59
2022/04/11 09:20:35;;;;;;;3.25;2.05;;;;;;;32.82;12.13;100513.69;5074842;28;20055;-59
2022/04/11 09:23:02;;;;;;;2.63;2.13;;;;;;;31.95;12.04;100502.22;5077346;28;20047;-59
2022/04/11 09:25:33;;;;;;;3.08;2.20;;;;;;;32.63;11.74;100512.75;5073766;28;20048;-59
2022/04/11 09:28:06;;;;;;;4.03;2.10;;;;;;;32.45;11.79;100501.81;5074532;28;20064;-57
2022/04/11 09:30:34;;;;;;;2.83;1.90;;;;;;;32.72;11.49;100509.97;5074648;28;20496;-59
2022/04/11 09:33:02;;;;;;;;;;;;;;;30.93;12.46;100513.56;5074600;28;20102;-56
2022/04/11 09:35:32;;;;;;;3.50;2.17;;;;;;;30.32;13.37;100507.41;5073712;28;19927;-59
2022/04/11 09:38:07;;;;;;;2.90;1.95;;;;;;;31.49;12.62;100495.09;5073961;28;20053;-59
2022/04/11 09:40:40;;;;;;;4.30;2.17;;;;;;;32.24;13.38;100489.75;5083553;28;20052;-59
2022/04/11 09:43:08;;;;;;;4.15;2.33;;;;;;;33.07;11.41;100481.84;5079110;28;20049;-59
2022/04/11 09:45:41;;;;;;;2.72;2.00;;;;;;;32.71;12.01;100480.28;5086224;28;20055;-58
2022/04/11 09:48:10;;;;;;;4.53;2.60;;;;;;;32.92;11.90;100490.22;5075454;28;20503;-59
2022/04/11 09:50:37;;;;;;;3.30;2.00;;;;;;;33.40;11.09;100484.31;5086177;28;20496;-59
2022/04/11 09:53:12;;;;;;;3.10;2.22;;;;;;;32.29;12.04;100477.63;5072712;28;20392;-59
2022/04/11 09:55:42;;;;;;;3.38;2.67;;;;;;;32.14;11.52;100474.44;5076034;28;20060;-59
2022/04/11 09:58:10;;;;;;;2.90;2.30;;;;;;;32.24;11.77;100458.06;5081611;28;20044;-59
2022/04/11 10:00:39;;;;;;;3.95;2.00;;;;;;;33.11;11.41;100461.53;5075870;28;20060;-60
2022/04/11 10:03:07;;;;;;;4.03;2.40;;;;;;;33.36;11.24;100454.78;5081413;28;20064;-59
2022/04/11 10:05:35;;;;;;;4.38;2.45;;;;;;;33.26;11.28;100456.00;5085838;28;20044;-59
2022/04/11 10:08:05;;;;;;;3.72;2.67;;;;;;;32.41;11.00;100455.81;5077623;28;20052;-59
2022/04/11 10:10:34;;;;;;;6.10;2.83;;;;;;;31.43;12.06;100451.66;5076636;28;20154;-59
2022/04/11 10:13:03;;;;;;;2.63;2.00;;;;;;;32.52;11.66;100446.78;5081697;28;20048;-59
2022/04/11 10:15:32;;;;;;;4.35;2.60;;;;;;;32.39;11.45;100446.03;5079180;28;20422;-57
2022/04/11 10:17:59;;;;;;;2.83;2.00;;;;;;;32.75;11.37;100455.00;5079579;28;20047;-60
2022/04/11 10:20:28;;;;;;;3.95;2.38;;;;;;;31.97;10.75;100441.25;5072926;28;20059;-60
2022/04/11 10:23:01;;;;;;;3.95;2.50;;;;;;;32.91;10.53;100444.53;5078781;28;20079;-60
2022/04/11 10:25:32;;;;;;;3.00;1.90;;;;;;;33.33;11.49;100438.41;5078773;28;20412;-59
2022/04/11 10:28:18;;;;;;;3.40;2.15;;;;;;;33.84;10.09;100434.28;5085524;28;20052;-59
2022/04/11 10:30:46;;;;;;;4.63;2.10;;;;;;;34.24;9.79;100424.75;5075647;28;20063;-60
2022/04/11 10:33:14;;;;;;;4.15;2.38;;;;;;;34.23;10.51;100423.97;5078654;28;20059;-59
2022/04/11 10:35:42;;;;;;;3.97;2.28;;;;;;;33.99;9.73;100414.25;5088266;28;20052;-60
2022/04/11 10:38:15;;;;;;;3.83;2.33;;;;;;;32.86;10.82;100416.28;5093002;28;20052;-59
2022/04/11 10:40:47;;;;;;;3.95;2.22;;;;;;;32.69;11.35;100416.50;5081822;28;20052;-58
2022/04/11 10:43:18;;;;;;;3.30;1.90;;;;;;;33.04;10.57;100415.59;5086568;28;20047;-60
2022/04/11 10:45:56;;;;;;;3.42;2.40;;;;;;;32.81;10.49;100408.25;5087211;28;20496;-59
2022/04/11 10:48:58;;;;;;;2.65;1.92;;;;;;;32.72;10.97;100406.91;5084991;28;20070;-60
2022/04/11 10:51:25;;;;;;;3.53;2.15;;;;;;;32.30;10.88;100410.06;5086131;28;20052;-59
2022/04/11 10:54:18;;;;;;;3.42;2.40;;;;;;;32.26;10.62;100406.50;5086641;28;20049;-59
2022/04/11 10:56:53;;;;;;;4.60;2.80;;;;;;;31.92;11.05;100404.41;5072692;28;20060;-59
2022/04/11 10:59:29;;;;;;;2.88;2.40;;;;;;;30.12;11.87;100406.09;5080454;28;20044;-59
2022/04/11 11:01:59;;;;;;;3.05;2.10;;;;;;;30.09;12.11;100401.25;5077049;28;20056;-59
2022/04/11 11:04:32;;;;;;;3.28;2.22;;;;;;;30.12;12.17;100398.28;5080703;28;20055;-58
2022/04/11 11:07:24;;;;;;;4.63;2.78;;;;;;;30.32;12.20;100391.63;5073725;28;20061;-59
2022/04/11 11:10:00;;;;;;;3.17;2.08;;;;;;;30.67;12.02;100386.13;5083094;28;20106;-59
2022/04/11 11:12:28;;;;;;;3.65;2.42;;;;;;;30.48;11.63;100390.78;5083626;28;20056;-60
2022/04/11 11:14:57;;;;;;;3.63;2.30;;;;;;;30.13;12.38;100390.47;5080130;28;20071;-59
2022/04/11 11:17:39;;;;;;;;;;;;;;;30.85;13.36;100376.94;5075407;28;20424;-59
2022/04/11 11:20:08;;;;;;;3.92;2.58;;;;;;;31.39;11.27;100387.59;5083393;28;19928;-59
2022/04/11 11:23:15;;;;;;;2.78;1.92;;;;;;;31.72;11.42;100378.75;5074813;28;20050;-59
2022/04/11 11:25:42;;;;;;;3.20;2.28;;;;;;;32.33;10.49;100379.50;5076163;28;20041;-55
2022/04/11 11:28:13;;;;;;;3.13;2.72;;;;;;;32.75;10.74;100370.53;5085943;28;20060;-60
2022/04/11 11:30:42;;;;;;;4.35;2.47;;;;;;;33.05;10.74;100365.25;5082548;28;20052;-59
2022/04/11 11:33:13;;;;;;;2.70;2.00;;;;;;;32.11;10.92;100353.56;5079623;28;20079;-60
2022/04/11 11:35:51;;;;;;;4.43;2.90;;;;;;;31.84;10.87;100354.06;5078775;28;20059;-59
2022/04/11 11:38:23;;;;;;;4.22;2.63;;;;;;;31.61;11.67;100349.50;5074096;28;20053;-59